Terminal Aerodrome Forecast
Issued by NWS

Home | Current Version | Previous Version | Graphics & Text | Print | Product List | Glossary On
Versions: 1 2 3 4 5 6 7 8 9 10 11 12 13 14 15
000
FTUS43 KMPX 221700
TAFAXN
TAF
KAXN 221740Z 2218/2318 18008KT P6SM SCT200
     FM222000 20008KT 1SM BR OVC002
     FM230600 18007KT 3SM BR OVC005
     FM231000 24006KT 6SM BR FEW006 OVC060 PROB30 2310/2315 -RA=

USA.gov is the U.S. government's official web portal to all federal, state and local government web resources and services.